createdAt,value
2022-09-22T00:01:32.234Z,49.44
2022-09-22T00:04:03.401Z,49.61
2022-09-22T00:06:43.534Z,48.70
2022-09-22T00:09:13.678Z,47.75
2022-09-22T00:11:44.875Z,48.46
2022-09-22T00:14:22.251Z,47.63
2022-09-22T00:16:53.902Z,46.25
2022-09-22T00:19:29.034Z,46.20
2022-09-22T00:21:57.141Z,46.27
2022-09-22T00:24:26.200Z,46.55
2022-09-22T00:26:57.430Z,46.51
2022-09-22T00:29:27.086Z,47.20
2022-09-22T00:31:55.795Z,47.15
2022-09-22T00:34:26.037Z,46.93
2022-09-22T00:36:53.836Z,47.25
2022-09-22T00:39:21.871Z,47.70
2022-09-22T00:41:52.019Z,48.12
2022-09-22T00:44:38.559Z,48.25
2022-09-22T00:47:06.479Z,48.18
2022-09-22T00:49:52.266Z,50.88
2022-09-22T00:52:24.759Z,51.07
2022-09-22T00:54:55.464Z,51.80
2022-09-22T00:57:26.694Z,48.48
2022-09-22T00:59:55.500Z,48.56
2022-09-22T01:02:24.236Z,48.64
2022-09-22T01:04:53.433Z,47.51
2022-09-22T01:07:25.208Z,48.31
2022-09-22T01:09:53.217Z,48.23
2022-09-22T01:12:21.250Z,48.64
2022-09-22T01:15:03.994Z,49.00
2022-09-22T01:17:38.659Z,49.37
2022-09-22T01:20:29.413Z,49.61
2022-09-22T01:23:09.066Z,49.46
2022-09-22T01:25:59.508Z,49.65
2022-09-22T01:28:48.895Z,50.60
2022-09-22T01:31:38.857Z,50.65
2022-09-22T01:34:20.064Z,51.38
2022-09-22T01:37:02.570Z,51.76
2022-09-22T01:39:40.263Z,51.93
2022-09-22T01:42:16.510Z,52.84
2022-09-22T01:44:55.217Z,53.54
2022-09-22T01:47:40.791Z,53.94
2022-09-22T01:50:16.492Z,54.01
2022-09-22T01:52:45.321Z,53.64
2022-09-22T01:55:19.950Z,53.44
2022-09-22T01:58:04.844Z,53.58
2022-09-22T02:00:32.737Z,54.13
2022-09-22T02:03:42.343Z,54.76
2022-09-22T02:06:14.390Z,55.32
2022-09-22T02:08:57.196Z,55.48
2022-09-22T02:11:26.015Z,56.03
2022-09-22T02:13:54.824Z,56.99
2022-09-22T02:16:24.951Z,57.90
2022-09-22T02:19:11.623Z,59.18
2022-09-22T02:21:43.020Z,60.63
2022-09-22T02:24:45.508Z,61.56
2022-09-22T02:27:28.011Z,61.38
2022-09-22T02:30:16.615Z,60.44
2022-09-22T02:32:48.911Z,60.33
2022-09-22T02:35:17.151Z,60.16
2022-09-22T02:38:02.894Z,61.03
2022-09-22T02:40:36.177Z,61.24
2022-09-22T02:43:43.848Z,61.55
2022-09-22T02:46:25.761Z,62.97
2022-09-22T02:49:03.944Z,61.50
2022-09-22T02:51:34.540Z,62.48
2022-09-22T02:54:03.492Z,63.18
2022-09-22T02:56:31.123Z,62.42
2022-09-22T02:58:58.915Z,61.54
2022-09-22T03:01:26.944Z,62.04
2022-09-22T03:03:54.881Z,62.20
2022-09-22T03:06:22.428Z,63.25
2022-09-22T03:08:50.379Z,62.47
2022-09-22T03:11:17.900Z,63.48
2022-09-22T03:13:45.574Z,64.34
2022-09-22T03:16:13.808Z,64.59
2022-09-22T03:18:41.466Z,66.59
2022-09-22T03:21:09.390Z,67.05
2022-09-22T03:23:36.843Z,67.41
2022-09-22T03:26:04.454Z,66.05
2022-09-22T03:28:32.469Z,65.28
2022-09-22T03:30:59.952Z,64.23
2022-09-22T03:33:27.502Z,62.24
2022-09-22T03:35:54.998Z,62.03
2022-09-22T03:38:22.785Z,62.19
2022-09-22T03:40:52.654Z,61.47
2022-09-22T03:43:21.518Z,62.23
2022-09-22T03:45:49.212Z,61.70
2022-09-22T03:48:18.284Z,62.09
2022-09-22T03:50:46.367Z,61.89
2022-09-22T03:53:13.826Z,61.65
2022-09-22T03:55:42.068Z,62.76
2022-09-22T03:58:09.589Z,63.82
2022-09-22T04:00:37.180Z,65.35
2022-09-22T04:03:05.011Z,66.24
2022-09-22T04:05:32.659Z,66.31
2022-09-22T04:08:01.020Z,66.08
2022-09-22T04:10:28.863Z,65.65
2022-09-22T04:12:56.381Z,65.10
2022-09-22T04:15:23.919Z,66.23
2022-09-22T04:17:51.467Z,69.04
2022-09-22T04:20:19.525Z,68.71
2022-09-22T04:22:47.136Z,68.42
2022-09-22T04:25:14.768Z,67.58
2022-09-22T04:27:42.736Z,67.60
2022-09-22T04:30:11.720Z,68.47
2022-09-22T04:32:40.091Z,67.36
2022-09-22T04:35:09.491Z,67.56
2022-09-22T04:37:37.468Z,67.19
2022-09-22T04:40:06.176Z,68.57
2022-09-22T04:42:34.132Z,68.86
2022-09-22T04:45:02.085Z,67.54
2022-09-22T04:47:30.571Z,66.32
2022-09-22T04:49:58.079Z,68.35
2022-09-22T04:52:26.371Z,69.23
2022-09-22T04:54:54.107Z,70.26
2022-09-22T04:57:22.834Z,72.75
2022-09-22T04:59:50.740Z,73.91
2022-09-22T05:02:19.170Z,76.29
2022-09-22T05:04:46.682Z,75.80
2022-09-22T05:07:15.194Z,75.00
2022-09-22T05:09:42.868Z,73.65
2022-09-22T05:12:10.364Z,74.61
2022-09-22T05:14:38.356Z,73.98
2022-09-22T05:17:06.284Z,72.70
2022-09-22T05:19:34.606Z,72.30
2022-09-22T05:22:02.574Z,70.37
2022-09-22T05:24:30.396Z,70.06
2022-09-22T05:26:59.104Z,66.94
2022-09-22T05:29:28.109Z,66.67
2022-09-22T05:31:56.170Z,64.35
2022-09-22T05:34:24.277Z,64.82
2022-09-22T05:36:51.846Z,63.60
2022-09-22T05:39:19.536Z,64.05
2022-09-22T05:41:49.930Z,62.53
2022-09-22T05:44:17.487Z,60.97
2022-09-22T05:46:46.815Z,59.77
2022-09-22T05:49:14.511Z,57.19
2022-09-22T05:51:42.711Z,56.57
2022-09-22T05:54:10.428Z,55.51
2022-09-22T05:56:37.971Z,55.47
2022-09-22T05:59:05.917Z,54.91
2022-09-22T06:01:34.174Z,55.29
2022-09-22T06:04:01.952Z,54.29
2022-09-22T06:06:29.459Z,54.62
2022-09-22T06:08:57.283Z,53.63
2022-09-22T06:11:24.875Z,53.07
2022-09-22T06:13:52.437Z,52.58
2022-09-22T06:16:21.228Z,53.58
2022-09-22T06:18:49.674Z,54.16
2022-09-22T06:21:17.683Z,53.31
2022-09-22T06:23:45.180Z,53.41
2022-09-22T06:26:12.856Z,51.76
2022-09-22T06:28:40.865Z,51.50
2022-09-22T06:31:08.875Z,52.28
2022-09-22T06:33:36.384Z,51.44
2022-09-22T06:36:08.078Z,50.96
2022-09-22T06:38:36.293Z,49.97
2022-09-22T06:41:06.731Z,49.51
2022-09-22T06:43:38.031Z,49.71
2022-09-22T06:46:05.907Z,48.62
2022-09-22T06:48:33.590Z,47.80
2022-09-22T06:51:01.505Z,47.44
2022-09-22T06:53:29.268Z,47.28
2022-09-22T06:55:58.497Z,47.56
2022-09-22T06:58:28.057Z,46.45
2022-09-22T07:01:00.932Z,46.05
2022-09-22T07:03:29.061Z,44.49
2022-09-22T07:06:01.043Z,44.79
2022-09-22T07:08:31.592Z,44.67
2022-09-22T07:11:02.353Z,44.32
2022-09-22T07:13:32.324Z,43.96
2022-09-22T07:16:19.653Z,43.29
2022-09-22T07:18:50.115Z,42.70
2022-09-22T07:21:28.061Z,43.08
2022-09-22T07:23:57.155Z,42.28
2022-09-22T07:26:29.013Z,42.46
2022-09-22T07:28:59.741Z,42.58
2022-09-22T07:31:29.578Z,42.53
2022-09-22T07:34:01.338Z,43.73
2022-09-22T07:36:31.408Z,42.38
2022-09-22T07:39:07.224Z,41.48
2022-09-22T07:41:41.864Z,42.74
2022-09-22T07:44:30.340Z,42.16
2022-09-22T07:46:58.445Z,41.65
2022-09-22T07:49:26.226Z,41.41
2022-09-22T07:51:57.746Z,40.06
2022-09-22T07:54:26.812Z,40.51
2022-09-22T07:57:02.264Z,39.53
2022-09-22T07:59:29.864Z,39.33
2022-09-22T08:01:58.232Z,38.66
2022-09-22T08:04:26.781Z,39.54
2022-09-22T08:06:58.239Z,38.82
2022-09-22T08:09:28.282Z,37.76
2022-09-22T08:11:56.056Z,38.33
2022-09-22T08:14:24.313Z,38.01
2022-09-22T08:16:53.603Z,39.16
2022-09-22T08:19:23.932Z,37.49
2022-09-22T08:21:54.430Z,37.73
2022-09-22T08:24:23.702Z,37.57
2022-09-22T08:26:53.809Z,36.55
2022-09-22T08:29:22.164Z,35.87
2022-09-22T08:31:51.527Z,34.66
2022-09-22T08:34:20.403Z,34.53
2022-09-22T08:36:49.104Z,35.31
2022-09-22T08:39:18.315Z,35.38
2022-09-22T08:41:47.057Z,35.98
2022-09-22T08:44:24.035Z,36.35
2022-09-22T08:46:53.525Z,35.22
2022-09-22T08:49:42.615Z,34.82
2022-09-22T08:52:25.545Z,35.92
2022-09-22T08:54:59.757Z,35.98
2022-09-22T08:57:42.368Z,35.89
2022-09-22T09:00:13.026Z,35.29
2022-09-22T09:02:55.594Z,35.11
2022-09-22T09:05:39.274Z,33.45
2022-09-22T09:08:15.895Z,33.08
2022-09-22T09:10:56.317Z,33.32
2022-09-22T09:13:48.797Z,32.05
2022-09-22T09:16:37.803Z,31.28
2022-09-22T09:19:17.129Z,30.56
2022-09-22T09:21:51.797Z,30.06
2022-09-22T09:27:30.569Z,30.27
2022-09-22T09:30:11.573Z,29.51
2022-09-22T09:32:53.367Z,28.29
2022-09-22T09:35:50.546Z,27.66
2022-09-22T09:38:26.340Z,26.64
2022-09-22T09:41:01.551Z,27.40
2022-09-22T09:43:30.291Z,27.47
2022-09-22T09:46:10.309Z,27.52
2022-09-22T09:48:59.530Z,25.69
2022-09-22T09:51:28.823Z,24.96
2022-09-22T09:53:58.575Z,23.51
2022-09-22T09:56:29.153Z,23.31
2022-09-22T09:59:19.044Z,24.14
2022-09-22T10:01:50.790Z,23.73
2022-09-22T10:04:29.935Z,24.96
2022-09-22T10:07:21.499Z,22.73
2022-09-22T10:09:51.886Z,23.07
2022-09-22T10:12:31.332Z,22.91
2022-09-22T10:15:01.480Z,23.86
2022-09-22T10:17:33.936Z,27.02
2022-09-22T10:20:23.274Z,25.77
2022-09-22T10:22:50.792Z,25.38
2022-09-22T10:25:23.313Z,26.41
2022-09-22T10:28:15.801Z,24.58
2022-09-22T10:30:46.511Z,24.65
2022-09-22T10:33:20.568Z,26.75
2022-09-22T10:36:15.045Z,30.05
2022-09-22T10:38:43.793Z,30.34
2022-09-22T10:41:19.355Z,31.15
2022-09-22T10:44:15.474Z,31.60
2022-09-22T10:47:27.385Z,33.98
2022-09-22T10:50:01.000Z,33.34
2022-09-22T10:52:28.694Z,32.92
2022-09-22T10:55:11.100Z,31.14
2022-09-22T10:58:00.243Z,31.33
2022-09-22T11:00:35.258Z,28.55
2022-09-22T11:03:05.790Z,28.55
2022-09-22T11:06:29.725Z,25.55
2022-09-22T11:09:45.645Z,21.64
2022-09-22T11:12:43.079Z,20.37
2022-09-22T11:15:39.984Z,21.91
2022-09-22T11:18:33.610Z,21.17
2022-09-22T11:21:10.874Z,21.31
2022-09-22T11:24:00.448Z,21.20
2022-09-22T11:26:29.155Z,19.40
2022-09-22T11:29:09.818Z,19.56
2022-09-22T11:31:54.199Z,20.05
2022-09-22T11:34:48.836Z,20.61
2022-09-22T11:37:31.753Z,21.80
2022-09-22T11:40:27.484Z,23.76
2022-09-22T11:43:21.805Z,22.68
2022-09-22T11:46:15.736Z,22.96
2022-09-22T11:49:09.977Z,23.04
2022-09-22T11:51:45.096Z,22.91
2022-09-22T11:54:47.026Z,22.84
2022-09-22T11:57:18.168Z,23.22
2022-09-22T11:59:53.713Z,22.40
2022-09-22T12:03:01.932Z,21.79
2022-09-22T12:05:39.309Z,23.05
2022-09-22T12:08:25.636Z,22.11
2022-09-22T12:10:54.323Z,21.17
2022-09-22T12:13:28.237Z,20.49
2022-09-22T12:16:22.528Z,20.75
2022-09-22T12:18:50.604Z,22.21
2022-09-22T12:21:27.420Z,19.98
2022-09-22T12:23:57.230Z,19.99
2022-09-22T12:26:33.633Z,20.37
2022-09-22T12:29:07.086Z,20.50
2022-09-22T12:31:42.666Z,20.23
2022-09-22T12:34:22.413Z,22.28
2022-09-22T12:36:55.519Z,20.29
2022-09-22T12:39:25.079Z,20.36
2022-09-22T12:42:29.784Z,20.26
2022-09-22T12:45:03.040Z,20.36
2022-09-22T12:47:38.374Z,19.98
2022-09-22T12:50:27.881Z,18.70
2022-09-22T12:53:03.904Z,18.82
2022-09-22T12:55:41.081Z,18.72
2022-09-22T12:58:20.666Z,21.69
2022-09-22T13:00:50.758Z,23.58
2022-09-22T13:03:27.594Z,24.39
2022-09-22T13:05:56.618Z,21.37
2022-09-22T13:08:33.808Z,19.06
2022-09-22T13:11:09.423Z,19.49
2022-09-22T13:13:46.872Z,18.76
2022-09-22T13:16:15.001Z,21.86
2022-09-22T13:18:44.031Z,24.37
2022-09-22T13:21:14.922Z,25.97
2022-09-22T13:23:51.519Z,25.55
2022-09-22T13:26:29.690Z,26.99
2022-09-22T13:29:01.711Z,27.66
2022-09-22T13:31:36.637Z,27.74
2022-09-22T13:34:35.423Z,25.48
2022-09-22T13:37:33.517Z,20.09
2022-09-22T13:40:02.177Z,20.14
2022-09-22T13:42:32.618Z,22.14
2022-09-22T13:45:18.634Z,23.48
2022-09-22T13:47:48.910Z,21.29
2022-09-22T13:50:22.160Z,20.82
2022-09-22T13:52:51.936Z,22.67
2022-09-22T13:55:33.716Z,21.10
2022-09-22T13:58:03.255Z,19.37
2022-09-22T14:01:08.670Z,18.24
2022-09-22T14:03:37.245Z,20.96
2022-09-22T14:06:09.311Z,19.10
2022-09-22T14:08:37.774Z,17.04
2022-09-22T14:11:12.075Z,15.04
2022-09-22T14:14:01.036Z,14.08
2022-09-22T14:16:51.612Z,13.43
2022-09-22T14:19:38.115Z,15.00
2022-09-22T14:22:15.566Z,14.61
2022-09-22T14:24:49.293Z,14.07
2022-09-22T14:27:21.285Z,13.70
2022-09-22T14:29:52.114Z,14.04
2022-09-22T14:32:25.579Z,12.91
2022-09-22T14:34:58.487Z,13.10
2022-09-22T14:37:43.151Z,12.91
2022-09-22T14:40:23.016Z,12.52
2022-09-22T14:43:03.228Z,12.95
2022-09-22T14:45:32.777Z,13.12
2022-09-22T14:48:13.020Z,13.08
2022-09-22T14:50:45.773Z,13.29
2022-09-22T14:53:13.688Z,13.52
2022-09-22T14:55:48.460Z,13.96
2022-09-22T14:58:24.031Z,13.30
2022-09-22T15:01:17.255Z,14.00
2022-09-22T15:03:55.251Z,13.82
2022-09-22T15:06:23.473Z,13.08
2022-09-22T15:08:52.782Z,12.46
2022-09-22T15:11:20.449Z,13.60
2022-09-22T15:13:52.797Z,13.38
2022-09-22T15:16:40.171Z,14.60
2022-09-22T15:19:14.427Z,13.49
2022-09-22T15:21:47.003Z,14.76
2022-09-22T15:24:21.280Z,14.97
2022-09-22T15:26:49.539Z,16.06
2022-09-22T15:29:17.398Z,15.94
2022-09-22T15:31:45.113Z,16.24
2022-09-22T15:34:16.597Z,15.27
2022-09-22T15:36:46.661Z,14.96
2022-09-22T15:39:23.310Z,16.60
2022-09-22T15:41:52.761Z,17.68
2022-09-22T15:44:20.637Z,20.42
2022-09-22T15:46:52.532Z,21.78
2022-09-22T15:49:25.062Z,23.62
2022-09-22T15:51:53.040Z,25.26
2022-09-22T15:54:23.824Z,25.74
2022-09-22T15:56:53.385Z,26.45
2022-09-22T15:59:26.709Z,26.79
2022-09-22T16:01:57.475Z,27.43
2022-09-22T16:04:31.762Z,28.19
2022-09-22T16:07:04.737Z,28.48
2022-09-22T16:09:32.300Z,29.16
2022-09-22T16:11:59.971Z,29.05
2022-09-22T16:14:28.441Z,30.56
2022-09-22T16:16:56.119Z,30.74
2022-09-22T16:19:24.629Z,31.33
2022-09-22T16:21:54.403Z,30.89
2022-09-22T16:24:22.917Z,31.09
2022-09-22T16:26:51.859Z,31.32
2022-09-22T16:29:19.663Z,31.35
2022-09-22T16:31:47.846Z,32.54
2022-09-22T16:34:16.494Z,31.65
2022-09-22T16:36:44.869Z,31.39
2022-09-22T16:39:12.392Z,32.55
2022-09-22T16:41:44.802Z,32.18
2022-09-22T16:44:13.328Z,32.40
2022-09-22T16:46:41.029Z,32.92
2022-09-22T16:49:12.077Z,32.42
2022-09-22T16:51:42.338Z,33.84
2022-09-22T16:54:13.822Z,33.48
2022-09-22T16:56:43.928Z,34.50
2022-09-22T16:59:15.416Z,34.85
2022-09-22T17:01:44.141Z,35.48
2022-09-22T17:04:16.542Z,34.93
2022-09-22T17:06:44.697Z,35.43
2022-09-22T17:09:14.359Z,35.46
2022-09-22T17:11:44.098Z,36.20
2022-09-22T17:14:15.483Z,36.09
2022-09-22T17:16:45.243Z,36.28
2022-09-22T17:19:19.496Z,36.48
2022-09-22T17:21:49.267Z,36.78
2022-09-22T17:24:19.302Z,36.97
2022-09-22T17:26:55.167Z,37.08
2022-09-22T17:29:28.320Z,37.39
2022-09-22T17:31:59.760Z,37.37
2022-09-22T17:34:28.909Z,37.72
2022-09-22T17:36:57.988Z,37.87
2022-09-22T17:39:27.375Z,37.66
2022-09-22T17:41:55.224Z,37.86
2022-09-22T17:44:23.390Z,37.92
2022-09-22T17:47:11.482Z,38.11
2022-09-22T17:50:02.908Z,38.58
2022-09-22T17:52:33.517Z,38.50
2022-09-22T17:55:08.043Z,38.94
2022-09-22T17:57:41.852Z,38.74
2022-09-22T18:00:10.759Z,38.96
2022-09-22T18:02:39.103Z,38.81
2022-09-22T18:05:10.476Z,39.53
2022-09-22T18:07:40.388Z,42.48
2022-09-22T18:10:14.469Z,43.23
2022-09-22T18:12:42.372Z,44.35
2022-09-22T18:15:13.536Z,45.73
2022-09-22T18:17:43.040Z,46.36
2022-09-22T18:20:16.287Z,47.22
2022-09-22T18:22:48.418Z,48.19
2022-09-22T18:25:19.638Z,48.79
2022-09-22T18:27:50.710Z,50.10
2022-09-22T18:30:19.559Z,50.92
2022-09-22T18:32:48.367Z,51.34
2022-09-22T18:35:16.427Z,53.84
2022-09-22T18:37:44.636Z,54.96
2022-09-22T18:40:12.856Z,54.91
2022-09-22T18:42:43.051Z,54.62
2022-09-22T18:45:11.254Z,55.54
2022-09-22T18:47:43.860Z,57.21
2022-09-22T18:50:13.055Z,58.37
2022-09-22T18:52:43.472Z,58.06
2022-09-22T18:55:14.134Z,57.34
2022-09-22T18:57:41.615Z,57.87
2022-09-22T19:00:11.315Z,59.28
2022-09-22T19:02:39.572Z,62.45
2022-09-22T19:05:08.636Z,64.36
2022-09-22T19:07:43.030Z,65.63
2022-09-22T19:10:19.034Z,65.92
2022-09-22T19:12:47.144Z,66.49
2022-09-22T19:15:18.850Z,66.17
2022-09-22T19:17:49.595Z,66.55
2022-09-22T19:20:23.958Z,67.20
2022-09-22T19:22:52.600Z,68.23
2022-09-22T19:25:22.098Z,67.73
2022-09-22T19:27:52.374Z,67.76
2022-09-22T19:30:23.289Z,67.00
2022-09-22T19:32:53.602Z,68.56
2022-09-22T19:35:21.772Z,68.39
2022-09-22T19:37:51.901Z,68.14
2022-09-22T19:40:21.036Z,67.40
2022-09-22T19:42:49.904Z,69.25
2022-09-22T19:45:19.089Z,68.96
2022-09-22T19:47:49.573Z,69.41
2022-09-22T19:50:17.989Z,69.90
2022-09-22T19:52:45.498Z,69.82
2022-09-22T19:55:13.331Z,69.64
2022-09-22T19:57:41.837Z,70.73
2022-09-22T20:00:17.234Z,70.82
2022-09-22T20:02:45.490Z,70.98
2022-09-22T20:05:20.726Z,71.00
2022-09-22T20:07:49.079Z,70.93
2022-09-22T20:10:19.024Z,69.78
2022-09-22T20:12:47.002Z,68.41
2022-09-22T20:15:15.893Z,69.21
2022-09-22T20:17:46.276Z,69.60
2022-09-22T20:20:25.295Z,69.56
2022-09-22T20:23:00.179Z,69.27
2022-09-22T20:25:30.382Z,70.77
2022-09-22T20:27:58.974Z,70.89
2022-09-22T20:30:27.532Z,70.40
2022-09-22T20:32:55.030Z,70.62
2022-09-22T20:35:22.730Z,71.27
2022-09-22T20:37:51.697Z,70.86
2022-09-22T20:40:21.604Z,71.81
2022-09-22T20:42:50.863Z,71.27
2022-09-22T20:45:21.027Z,71.23
2022-09-22T20:47:49.575Z,71.17
2022-09-22T20:50:18.535Z,72.07
2022-09-22T20:52:47.430Z,70.40
2022-09-22T20:55:15.583Z,70.55
2022-09-22T20:57:43.842Z,71.24
2022-09-22T21:00:13.263Z,71.46
2022-09-22T21:02:41.117Z,71.44
2022-09-22T21:05:08.930Z,72.04
2022-09-22T21:07:36.883Z,71.91
2022-09-22T21:10:23.343Z,71.45
2022-09-22T21:12:55.025Z,70.41
2022-09-22T21:15:22.991Z,70.70
2022-09-22T21:17:52.922Z,72.20
2022-09-22T21:20:20.635Z,71.98
2022-09-22T21:22:48.187Z,72.00
2022-09-22T21:25:16.117Z,71.75
2022-09-22T21:27:45.290Z,71.54
2022-09-22T21:30:13.283Z,71.38
2022-09-22T21:32:40.838Z,71.19
2022-09-22T21:35:08.971Z,71.35
2022-09-22T21:37:36.537Z,70.47
2022-09-22T21:40:04.496Z,70.03
2022-09-22T21:42:32.468Z,71.12
2022-09-22T21:45:00.017Z,71.73
2022-09-22T21:47:27.462Z,72.06
2022-09-22T21:49:54.957Z,71.16
2022-09-22T21:52:22.866Z,71.14
2022-09-22T21:54:50.839Z,71.11
2022-09-22T21:57:18.403Z,72.40
2022-09-22T21:59:46.361Z,72.01
2022-09-22T22:02:14.109Z,73.39
2022-09-22T22:04:41.898Z,72.65
2022-09-22T22:07:11.076Z,73.84
2022-09-22T22:09:38.615Z,73.49
2022-09-22T22:12:06.801Z,73.58
2022-09-22T22:14:34.913Z,73.78
2022-09-22T22:17:04.205Z,75.51
2022-09-22T22:19:32.743Z,74.78
2022-09-22T22:22:00.311Z,76.02
2022-09-22T22:24:28.956Z,76.90
2022-09-22T22:27:01.354Z,76.76
2022-09-22T22:29:32.201Z,77.22
2022-09-22T22:31:59.680Z,77.85
2022-09-22T22:34:28.035Z,77.90
2022-09-22T22:36:56.171Z,76.68
2022-09-22T22:39:24.672Z,76.65
2022-09-22T22:41:54.543Z,77.84
2022-09-22T22:44:22.865Z,78.27
2022-09-22T22:46:50.427Z,78.35
2022-09-22T22:49:17.977Z,78.00
2022-09-22T22:51:46.124Z,78.89
2022-09-22T22:54:14.495Z,79.07
2022-09-22T22:56:43.716Z,79.73
2022-09-22T22:59:13.362Z,80.09
2022-09-22T23:01:44.035Z,80.24
2022-09-22T23:04:12.411Z,80.29
2022-09-22T23:06:47.384Z,80.43
2022-09-22T23:09:16.887Z,80.41
2022-09-22T23:11:46.322Z,81.15
2022-09-22T23:14:16.243Z,81.54
2022-09-22T23:16:46.407Z,82.61
2022-09-22T23:19:17.318Z,82.94
2022-09-22T23:21:46.210Z,82.61
2022-09-22T23:24:19.135Z,83.24
2022-09-22T23:26:47.793Z,83.85
2022-09-22T23:29:15.376Z,84.21
2022-09-22T23:31:42.998Z,83.98
2022-09-22T23:34:10.578Z,84.24
2022-09-22T23:36:39.825Z,84.92
2022-09-22T23:39:07.655Z,85.33
2022-09-22T23:41:37.276Z,85.08
2022-09-22T23:44:06.800Z,85.73
2022-09-22T23:46:35.095Z,86.04
2022-09-22T23:49:02.814Z,85.31
2022-09-22T23:51:31.062Z,85.79
2022-09-22T23:53:58.670Z,86.01
2022-09-22T23:56:26.990Z,86.72
2022-09-22T23:58:55.603Z,86.48
